Green Creek, New Jersey
Current Conditions -  °F | °C
As of 7:15 AM on Friday 28 Nov 2014 (Local Time) from KWWD Reporting Station
Scattered Clouds Scattered Clouds  
Wind Chill: 26°   Ceiling: Unl
Heat Index: 36°   Visibility: 10mi
Dew Point: 21°   Wind: 16mph
Humidity: 56%   Direction: 300°WNW
Pressure: 30.2"   Gusts: 21mph
Location:  39.05°N, 74.9°W
Report Text: KWWD 281215Z AUTO 30014G18KT 10SM SCT033 02/M06 A3020 RMK AO1
Loading
Personal Weather Stations






























Interactive Weather Map New forecast layout! Learn more

10-Day Weather Forecast

Advertisements
Track Severe Weather on mobile